sensor_id;sensor_type;location;lat;lon;timestamp;pressure;altitude;pressure_sealevel;temperature;humidity
4586;BME280;2305;50.118;8.952;2022-07-25T00:01:34;100235.84;;;22.60;100.00
4586;BME280;2305;50.118;8.952;2022-07-25T00:04:05;100229.22;;;22.56;100.00
4586;BME280;2305;50.118;8.952;2022-07-25T00:06:37;100235.84;;;22.54;100.00
4586;BME280;2305;50.118;8.952;2022-07-25T00:09:08;100226.13;;;22.53;100.00
4586;BME280;2305;50.118;8.952;2022-07-25T00:11:36;100227.34;;;22.50;100.00
4586;BME280;2305;50.118;8.952;2022-07-25T00:14:05;100229.41;;;22.48;100.00
4586;BME280;2305;50.118;8.952;2022-07-25T00:16:34;100221.56;;;22.47;100.00
4586;BME280;2305;50.118;8.952;2022-07-25T00:19:02;100224.19;;;22.40;100.00
4586;BME280;2305;50.118;8.952;2022-07-25T00:21:31;100219.03;;;22.39;100.00
4586;BME280;2305;50.118;8.952;2022-07-25T00:24:00;100214.25;;;22.28;100.00
4586;BME280;2305;50.118;8.952;2022-07-25T00:26:29;100213.22;;;22.22;100.00
4586;BME280;2305;50.118;8.952;2022-07-25T00:29:02;100213.81;;;22.24;100.00
4586;BME280;2305;50.118;8.952;2022-07-25T00:31:30;100208.06;;;22.27;100.00
4586;BME280;2305;50.118;8.952;2022-07-25T00:33:59;100207.22;;;22.27;100.00
4586;BME280;2305;50.118;8.952;2022-07-25T00:36:27;100201.03;;;22.26;100.00
4586;BME280;2305;50.118;8.952;2022-07-25T00:38:56;100211.38;;;22.29;100.00
4586;BME280;2305;50.118;8.952;2022-07-25T00:41:24;100208.88;;;22.28;100.00
4586;BME280;2305;50.118;8.952;2022-07-25T00:43:52;100203.94;;;22.25;100.00
4586;BME280;2305;50.118;8.952;2022-07-25T00:46:20;100198.31;;;22.20;100.00
4586;BME280;2305;50.118;8.952;2022-07-25T00:48:49;100201.00;;;22.20;100.00
4586;BME280;2305;50.118;8.952;2022-07-25T00:51:17;100197.47;;;22.19;100.00
4586;BME280;2305;50.118;8.952;2022-07-25T00:53:45;100191.91;;;22.14;100.00
4586;BME280;2305;50.118;8.952;2022-07-25T00:56:15;100190.84;;;22.09;100.00
4586;BME280;2305;50.118;8.952;2022-07-25T00:58:46;100188.16;;;22.09;100.00
4586;BME280;2305;50.118;8.952;2022-07-25T01:01:13;100179.91;;;22.10;100.00
4586;BME280;2305;50.118;8.952;2022-07-25T01:03:42;100183.03;;;22.07;100.00
4586;BME280;2305;50.118;8.952;2022-07-25T01:06:10;100186.31;;;22.09;100.00
4586;BME280;2305;50.118;8.952;2022-07-25T01:08:39;100183.41;;;22.04;100.00
4586;BME280;2305;50.118;8.952;2022-07-25T01:11:08;100184.22;;;21.98;100.00
4586;BME280;2305;50.118;8.952;2022-07-25T01:13:38;100184.00;;;22.00;100.00
4586;BME280;2305;50.118;8.952;2022-07-25T01:16:06;100184.63;;;22.02;100.00
4586;BME280;2305;50.118;8.952;2022-07-25T01:18:34;100174.13;;;22.00;100.00
4586;BME280;2305;50.118;8.952;2022-07-25T01:21:04;100173.28;;;22.00;100.00
4586;BME280;2305;50.118;8.952;2022-07-25T01:23:32;100169.13;;;21.97;100.00
4586;BME280;2305;50.118;8.952;2022-07-25T01:26:00;100173.69;;;21.97;100.00
4586;BME280;2305;50.118;8.952;2022-07-25T01:28:28;100172.66;;;21.98;100.00
4586;BME280;2305;50.118;8.952;2022-07-25T01:30:56;100169.56;;;21.94;100.00
4586;BME280;2305;50.118;8.952;2022-07-25T01:33:24;100170.16;;;21.90;100.00
4586;BME280;2305;50.118;8.952;2022-07-25T01:35:52;100158.78;;;21.88;100.00
4586;BME280;2305;50.118;8.952;2022-07-25T01:38:21;100156.09;;;21.88;100.00
4586;BME280;2305;50.118;8.952;2022-07-25T01:40:49;100161.69;;;21.86;100.00
4586;BME280;2305;50.118;8.952;2022-07-25T01:43:18;100154.25;;;21.82;100.00
4586;BME280;2305;50.118;8.952;2022-07-25T01:45:46;100151.34;;;21.83;100.00
4586;BME280;2305;50.118;8.952;2022-07-25T01:48:14;100148.03;;;21.81;100.00
4586;BME280;2305;50.118;8.952;2022-07-25T01:50:42;100148.84;;;21.75;100.00
4586;BME280;2305;50.118;8.952;2022-07-25T01:53:10;100146.38;;;21.74;100.00
4586;BME280;2305;50.118;8.952;2022-07-25T01:55:39;100146.75;;;21.71;100.00
4586;BME280;2305;50.118;8.952;2022-07-25T01:58:08;100140.16;;;21.67;100.00
4586;BME280;2305;50.118;8.952;2022-07-25T02:00:37;100137.81;;;21.64;100.00
4586;BME280;2305;50.118;8.952;2022-07-25T02:03:06;100136.59;;;21.60;100.00
4586;BME280;2305;50.118;8.952;2022-07-25T02:05:51;100131.78;;;21.55;100.00
4586;BME280;2305;50.118;8.952;2022-07-25T02:08:19;100127.69;;;21.53;100.00
4586;BME280;2305;50.118;8.952;2022-07-25T02:10:49;100126.84;;;21.52;100.00
4586;BME280;2305;50.118;8.952;2022-07-25T02:13:17;100122.03;;;21.41;100.00
4586;BME280;2305;50.118;8.952;2022-07-25T02:15:46;100128.59;;;21.32;100.00
4586;BME280;2305;50.118;8.952;2022-07-25T02:18:14;100128.59;;;21.26;100.00
4586;BME280;2305;50.118;8.952;2022-07-25T02:20:42;100129.59;;;21.25;100.00
4586;BME280;2305;50.118;8.952;2022-07-25T02:23:10;100127.50;;;21.20;100.00
4586;BME280;2305;50.118;8.952;2022-07-25T02:25:38;100117.59;;;21.14;100.00
4586;BME280;2305;50.118;8.952;2022-07-25T02:28:08;100118.56;;;21.07;100.00
4586;BME280;2305;50.118;8.952;2022-07-25T02:30:36;100122.47;;;21.04;100.00
4586;BME280;2305;50.118;8.952;2022-07-25T02:33:05;100124.50;;;21.02;100.00
4586;BME280;2305;50.118;8.952;2022-07-25T02:35:33;100115.84;;;21.00;100.00
4586;BME280;2305;50.118;8.952;2022-07-25T02:38:01;100123.88;;;21.00;100.00
4586;BME280;2305;50.118;8.952;2022-07-25T02:40:29;100117.88;;;20.98;100.00
4586;BME280;2305;50.118;8.952;2022-07-25T02:42:57;100114.16;;;20.93;100.00
4586;BME280;2305;50.118;8.952;2022-07-25T02:45:26;100106.09;;;20.93;100.00
4586;BME280;2305;50.118;8.952;2022-07-25T02:47:54;100097.25;;;20.92;100.00
4586;BME280;2305;50.118;8.952;2022-07-25T02:50:22;100100.94;;;20.91;100.00
4586;BME280;2305;50.118;8.952;2022-07-25T02:52:50;100090.63;;;20.88;100.00
4586;BME280;2305;50.118;8.952;2022-07-25T02:55:18;100083.22;;;20.90;100.00
4586;BME280;2305;50.118;8.952;2022-07-25T02:57:46;100085.28;;;20.88;100.00
4586;BME280;2305;50.118;8.952;2022-07-25T03:00:15;100084.25;;;20.89;100.00
4586;BME280;2305;50.118;8.952;2022-07-25T03:02:44;100081.94;;;20.86;100.00
4586;BME280;2305;50.118;8.952;2022-07-25T03:05:13;100087.75;;;20.90;100.00
4586;BME280;2305;50.118;8.952;2022-07-25T03:07:43;100082.97;;;20.85;100.00
4586;BME280;2305;50.118;8.952;2022-07-25T03:10:12;100080.75;;;20.89;100.00
4586;BME280;2305;50.118;8.952;2022-07-25T03:12:42;100081.38;;;20.91;100.00
4586;BME280;2305;50.118;8.952;2022-07-25T03:15:11;100077.03;;;20.90;100.00
4586;BME280;2305;50.118;8.952;2022-07-25T03:17:39;100073.91;;;20.86;100.00
4586;BME280;2305;50.118;8.952;2022-07-25T03:20:09;100071.41;;;20.85;100.00
4586;BME280;2305;50.118;8.952;2022-07-25T03:22:38;100075.50;;;20.81;100.00
4586;BME280;2305;50.118;8.952;2022-07-25T03:25:06;100072.38;;;20.77;100.00
4586;BME280;2305;50.118;8.952;2022-07-25T03:27:48;100078.56;;;20.78;100.00
4586;BME280;2305;50.118;8.952;2022-07-25T03:30:16;100072.00;;;20.80;100.00
4586;BME280;2305;50.118;8.952;2022-07-25T03:32:44;100070.34;;;20.79;100.00
4586;BME280;2305;50.118;8.952;2022-07-25T03:35:13;100079.41;;;20.78;100.00
4586;BME280;2305;50.118;8.952;2022-07-25T03:37:42;100076.91;;;20.77;100.00
4586;BME280;2305;50.118;8.952;2022-07-25T03:40:11;100069.06;;;20.75;100.00
4586;BME280;2305;50.118;8.952;2022-07-25T03:42:41;100066.41;;;20.75;100.00
4586;BME280;2305;50.118;8.952;2022-07-25T03:45:10;100057.56;;;20.75;100.00
4586;BME280;2305;50.118;8.952;2022-07-25T03:47:37;100064.31;;;20.71;100.00
4586;BME280;2305;50.118;8.952;2022-07-25T03:50:06;100075.66;;;20.73;100.00
4586;BME280;2305;50.118;8.952;2022-07-25T03:52:36;100081.44;;;20.76;100.00
4586;BME280;2305;50.118;8.952;2022-07-25T03:55:05;100077.72;;;20.77;100.00
4586;BME280;2305;50.118;8.952;2022-07-25T03:57:33;100061.22;;;20.74;100.00
4586;BME280;2305;50.118;8.952;2022-07-25T04:00:01;100059.19;;;20.76;100.00
4586;BME280;2305;50.118;8.952;2022-07-25T04:02:34;100052.38;;;20.73;100.00
4586;BME280;2305;50.118;8.952;2022-07-25T04:05:04;100062.06;;;20.74;100.00
4586;BME280;2305;50.118;8.952;2022-07-25T04:07:32;100064.75;;;20.74;100.00
4586;BME280;2305;50.118;8.952;2022-07-25T04:10:02;100064.34;;;20.77;100.00
4586;BME280;2305;50.118;8.952;2022-07-25T04:12:30;100058.78;;;20.79;100.00
4586;BME280;2305;50.118;8.952;2022-07-25T04:14:58;100058.41;;;20.82;100.00
4586;BME280;2305;50.118;8.952;2022-07-25T04:17:26;100051.00;;;20.84;100.00
4586;BME280;2305;50.118;8.952;2022-07-25T04:19:54;100056.97;;;20.86;100.00
4586;BME280;2305;50.118;8.952;2022-07-25T04:22:22;100052.66;;;20.85;100.00
4586;BME280;2305;50.118;8.952;2022-07-25T04:24:50;100046.47;;;20.84;100.00
4586;BME280;2305;50.118;8.952;2022-07-25T04:27:19;100047.56;;;20.90;100.00
4586;BME280;2305;50.118;8.952;2022-07-25T04:29:47;100048.63;;;20.95;100.00
4586;BME280;2305;50.118;8.952;2022-07-25T04:32:15;100044.53;;;20.99;100.00
4586;BME280;2305;50.118;8.952;2022-07-25T04:34:49;100040.84;;;21.00;100.00
4586;BME280;2305;50.118;8.952;2022-07-25T04:37:18;100042.47;;;21.01;100.00
4586;BME280;2305;50.118;8.952;2022-07-25T04:39:46;100033.00;;;21.05;100.00
4586;BME280;2305;50.118;8.952;2022-07-25T04:42:14;100028.28;;;21.07;100.00
4586;BME280;2305;50.118;8.952;2022-07-25T04:44:43;100029.53;;;21.11;100.00
4586;BME280;2305;50.118;8.952;2022-07-25T04:47:11;100030.16;;;21.13;100.00
4586;BME280;2305;50.118;8.952;2022-07-25T04:49:39;100035.13;;;21.16;100.00
4586;BME280;2305;50.118;8.952;2022-07-25T04:52:07;100025.66;;;21.20;100.00
4586;BME280;2305;50.118;8.952;2022-07-25T04:54:35;100026.50;;;21.21;100.00
4586;BME280;2305;50.118;8.952;2022-07-25T04:57:03;100025.25;;;21.23;100.00
4586;BME280;2305;50.118;8.952;2022-07-25T04:59:31;100025.06;;;21.25;100.00
4586;BME280;2305;50.118;8.952;2022-07-25T05:02:00;100018.47;;;21.27;100.00
4586;BME280;2305;50.118;8.952;2022-07-25T05:04:29;100019.91;;;21.30;100.00
4586;BME280;2305;50.118;8.952;2022-07-25T05:06:59;100024.66;;;21.34;100.00
4586;BME280;2305;50.118;8.952;2022-07-25T05:09:27;100022.41;;;21.38;100.00
4586;BME280;2305;50.118;8.952;2022-07-25T05:11:55;100018.94;;;21.44;100.00
4586;BME280;2305;50.118;8.952;2022-07-25T05:14:23;100017.72;;;21.46;100.00
4586;BME280;2305;50.118;8.952;2022-07-25T05:16:51;100021.66;;;21.50;100.00
4586;BME280;2305;50.118;8.952;2022-07-25T05:19:21;100025.78;;;21.59;100.00
4586;BME280;2305;50.118;8.952;2022-07-25T05:21:49;100033.22;;;21.64;100.00
4586;BME280;2305;50.118;8.952;2022-07-25T05:24:17;100034.94;;;21.71;100.00
4586;BME280;2305;50.118;8.952;2022-07-25T05:26:45;100034.75;;;21.79;100.00
4586;BME280;2305;50.118;8.952;2022-07-25T05:29:15;100027.72;;;21.85;100.00
4586;BME280;2305;50.118;8.952;2022-07-25T05:31:43;100024.03;;;21.92;100.00
4586;BME280;2305;50.118;8.952;2022-07-25T05:34:11;100026.53;;;22.00;100.00
4586;BME280;2305;50.118;8.952;2022-07-25T05:36:40;100024.66;;;22.07;100.00
4586;BME280;2305;50.118;8.952;2022-07-25T05:39:13;100024.66;;;22.14;100.00
4586;BME280;2305;50.118;8.952;2022-07-25T05:41:41;100020.75;;;22.16;100.00
4586;BME280;2305;50.118;8.952;2022-07-25T05:44:09;100012.25;;;22.19;100.00
4586;BME280;2305;50.118;8.952;2022-07-25T05:46:37;100016.81;;;22.25;100.00
4586;BME280;2305;50.118;8.952;2022-07-25T05:49:05;100022.19;;;22.38;100.00
4586;BME280;2305;50.118;8.952;2022-07-25T05:51:33;100010.63;;;22.44;100.00
4586;BME280;2305;50.118;8.952;2022-07-25T05:54:04;100012.09;;;22.47;100.00
4586;BME280;2305;50.118;8.952;2022-07-25T05:56:32;100016.41;;;22.61;100.00
4586;BME280;2305;50.118;8.952;2022-07-25T05:59:00;100010.19;;;22.67;100.00
4586;BME280;2305;50.118;8.952;2022-07-25T06:01:29;100001.06;;;22.74;100.00
4586;BME280;2305;50.118;8.952;2022-07-25T06:03:57;100008.09;;;22.82;100.00
4586;BME280;2305;50.118;8.952;2022-07-25T06:06:25;99999.59;;;22.91;100.00
4586;BME280;2305;50.118;8.952;2022-07-25T06:08:53;99996.81;;;23.04;100.00
4586;BME280;2305;50.118;8.952;2022-07-25T06:11:23;100002.38;;;23.22;100.00
4586;BME280;2305;50.118;8.952;2022-07-25T06:13:56;99994.91;;;23.31;100.00
4586;BME280;2305;50.118;8.952;2022-07-25T06:16:24;100000.19;;;23.44;100.00
4586;BME280;2305;50.118;8.952;2022-07-25T06:18:52;99987.75;;;23.49;100.00
4586;BME280;2305;50.118;8.952;2022-07-25T06:21:20;99986.84;;;23.62;100.00
4586;BME280;2305;50.118;8.952;2022-07-25T06:23:48;99994.88;;;23.68;100.00
4586;BME280;2305;50.118;8.952;2022-07-25T06:26:16;99992.75;;;23.77;100.00
4586;BME280;2305;50.118;8.952;2022-07-25T06:28:46;99996.63;;;23.87;100.00
4586;BME280;2305;50.118;8.952;2022-07-25T06:31:15;99985.59;;;23.95;100.00
4586;BME280;2305;50.118;8.952;2022-07-25T06:33:43;99991.72;;;24.09;100.00
4586;BME280;2305;50.118;8.952;2022-07-25T06:36:11;99992.63;;;24.21;100.00
4586;BME280;2305;50.118;8.952;2022-07-25T06:38:39;99988.00;;;24.27;100.00
4586;BME280;2305;50.118;8.952;2022-07-25T06:41:12;99991.84;;;24.38;100.00
4586;BME280;2305;50.118;8.952;2022-07-25T06:43:43;99981.03;;;24.44;100.00
4586;BME280;2305;50.118;8.952;2022-07-25T06:46:12;99981.53;;;24.53;100.00
4586;BME280;2305;50.118;8.952;2022-07-25T06:48:40;99981.44;;;24.66;100.00
4586;BME280;2305;50.118;8.952;2022-07-25T06:51:08;99984.47;;;24.76;100.00
4586;BME280;2305;50.118;8.952;2022-07-25T06:53:36;99987.66;;;24.84;100.00
4586;BME280;2305;50.118;8.952;2022-07-25T06:56:07;99985.97;;;24.90;100.00
4586;BME280;2305;50.118;8.952;2022-07-25T06:58:40;99978.84;;;24.95;100.00
4586;BME280;2305;50.118;8.952;2022-07-25T07:01:11;99980.31;;;25.09;100.00
4586;BME280;2305;50.118;8.952;2022-07-25T07:03:42;99972.72;;;25.18;100.00
4586;BME280;2305;50.118;8.952;2022-07-25T07:06:10;99973.75;;;25.23;100.00
4586;BME280;2305;50.118;8.952;2022-07-25T07:08:38;99971.16;;;25.28;100.00
4586;BME280;2305;50.118;8.952;2022-07-25T07:11:06;99965.09;;;25.33;100.00
4586;BME280;2305;50.118;8.952;2022-07-25T07:13:35;99969.56;;;25.39;100.00
4586;BME280;2305;50.118;8.952;2022-07-25T07:16:03;99973.25;;;25.44;100.00
4586;BME280;2305;50.118;8.952;2022-07-25T07:18:33;99973.97;;;25.51;100.00
4586;BME280;2305;50.118;8.952;2022-07-25T07:21:01;99972.38;;;25.62;100.00
4586;BME280;2305;50.118;8.952;2022-07-25T07:23:29;99969.78;;;25.67;100.00
4586;BME280;2305;50.118;8.952;2022-07-25T07:25:58;99974.41;;;25.78;100.00
4586;BME280;2305;50.118;8.952;2022-07-25T07:28:26;99963.72;;;25.83;100.00
4586;BME280;2305;50.118;8.952;2022-07-25T07:30:54;99958.44;;;25.88;100.00
4586;BME280;2305;50.118;8.952;2022-07-25T07:33:45;99964.94;;;25.98;100.00
4586;BME280;2305;50.118;8.952;2022-07-25T07:36:13;99960.50;;;26.04;100.00
4586;BME280;2305;50.118;8.952;2022-07-25T07:38:41;99964.38;;;26.08;100.00
4586;BME280;2305;50.118;8.952;2022-07-25T07:41:11;99962.59;;;26.13;100.00
4586;BME280;2305;50.118;8.952;2022-07-25T07:43:39;99946.53;;;26.18;100.00
4586;BME280;2305;50.118;8.952;2022-07-25T07:46:07;99944.75;;;26.24;100.00
4586;BME280;2305;50.118;8.952;2022-07-25T07:48:35;99947.09;;;26.32;100.00
4586;BME280;2305;50.118;8.952;2022-07-25T07:51:05;99952.41;;;26.38;100.00
4586;BME280;2305;50.118;8.952;2022-07-25T07:53:33;99953.34;;;26.44;100.00
4586;BME280;2305;50.118;8.952;2022-07-25T07:56:22;99947.38;;;26.53;100.00
4586;BME280;2305;50.118;8.952;2022-07-25T07:58:50;99948.91;;;26.61;100.00
4586;BME280;2305;50.118;8.952;2022-07-25T08:01:18;99949.34;;;26.69;100.00
4586;BME280;2305;50.118;8.952;2022-07-25T08:03:46;99940.28;;;26.75;100.00
4586;BME280;2305;50.118;8.952;2022-07-25T08:06:17;99943.09;;;26.80;100.00
4586;BME280;2305;50.118;8.952;2022-07-25T08:08:45;99939.53;;;26.91;100.00
4586;BME280;2305;50.118;8.952;2022-07-25T08:11:13;99945.28;;;26.95;100.00
4586;BME280;2305;50.118;8.952;2022-07-25T08:13:41;99944.09;;;27.02;100.00
4586;BME280;2305;50.118;8.952;2022-07-25T08:16:09;99946.91;;;27.07;100.00
4586;BME280;2305;50.118;8.952;2022-07-25T08:18:39;99948.44;;;27.15;100.00
4586;BME280;2305;50.118;8.952;2022-07-25T08:21:07;99945.34;;;27.23;100.00
4586;BME280;2305;50.118;8.952;2022-07-25T08:23:37;99950.00;;;27.39;100.00
4586;BME280;2305;50.118;8.952;2022-07-25T08:26:05;99951.69;;;27.45;100.00
4586;BME280;2305;50.118;8.952;2022-07-25T08:28:33;99954.34;;;27.56;100.00
4586;BME280;2305;50.118;8.952;2022-07-25T08:31:01;99953.72;;;27.66;100.00
4586;BME280;2305;50.118;8.952;2022-07-25T08:33:30;99957.34;;;27.71;100.00
4586;BME280;2305;50.118;8.952;2022-07-25T08:35:58;99958.06;;;27.78;100.00
4586;BME280;2305;50.118;8.952;2022-07-25T08:38:27;99951.91;;;27.83;100.00
4586;BME280;2305;50.118;8.952;2022-07-25T08:40:59;99962.47;;;28.01;100.00
4586;BME280;2305;50.118;8.952;2022-07-25T08:43:29;99959.84;;;28.06;100.00
4586;BME280;2305;50.118;8.952;2022-07-25T08:46:00;99962.88;;;28.26;100.00
4586;BME280;2305;50.118;8.952;2022-07-25T08:48:29;99957.53;;;28.47;100.00
4586;BME280;2305;50.118;8.952;2022-07-25T08:51:01;99954.91;;;28.52;99.98
4586;BME280;2305;50.118;8.952;2022-07-25T08:53:30;99944.63;;;28.54;100.00
4586;BME280;2305;50.118;8.952;2022-07-25T08:56:03;99943.06;;;28.58;100.00
4586;BME280;2305;50.118;8.952;2022-07-25T08:58:39;99932.84;;;28.65;98.89
4586;BME280;2305;50.118;8.952;2022-07-25T09:01:10;99938.59;;;28.69;99.91
4586;BME280;2305;50.118;8.952;2022-07-25T09:03:38;99931.09;;;28.76;99.01
4586;BME280;2305;50.118;8.952;2022-07-25T09:06:15;99928.41;;;28.81;99.23
4586;BME280;2305;50.118;8.952;2022-07-25T09:08:51;99930.31;;;28.97;95.21
4586;BME280;2305;50.118;8.952;2022-07-25T09:11:29;99916.59;;;29.08;94.44
4586;BME280;2305;50.118;8.952;2022-07-25T09:13:58;99913.53;;;29.26;92.46
4586;BME280;2305;50.118;8.952;2022-07-25T09:16:30;99907.28;;;29.26;92.38
4586;BME280;2305;50.118;8.952;2022-07-25T09:19:08;99912.50;;;29.54;92.04
4586;BME280;2305;50.118;8.952;2022-07-25T09:21:42;99906.03;;;29.65;87.35
4586;BME280;2305;50.118;8.952;2022-07-25T09:24:14;99898.19;;;29.68;86.52
4586;BME280;2305;50.118;8.952;2022-07-25T09:26:47;99890.94;;;29.79;86.08
4586;BME280;2305;50.118;8.952;2022-07-25T09:29:17;99902.53;;;29.96;85.10
4586;BME280;2305;50.118;8.952;2022-07-25T09:31:46;99894.50;;;30.16;82.18
4586;BME280;2305;50.118;8.952;2022-07-25T09:34:29;99888.91;;;30.32;82.87
4586;BME280;2305;50.118;8.952;2022-07-25T09:36:57;99889.28;;;30.50;82.24
4586;BME280;2305;50.118;8.952;2022-07-25T09:39:37;99888.91;;;30.73;79.72
4586;BME280;2305;50.118;8.952;2022-07-25T09:42:22;99886.75;;;30.80;88.35
4586;BME280;2305;50.118;8.952;2022-07-25T09:45:05;99881.84;;;30.82;81.91
4586;BME280;2305;50.118;8.952;2022-07-25T09:47:37;99879.72;;;30.94;80.49
4586;BME280;2305;50.118;8.952;2022-07-25T09:50:06;99870.47;;;31.05;79.20
4586;BME280;2305;50.118;8.952;2022-07-25T09:52:35;99870.53;;;31.20;78.93
4586;BME280;2305;50.118;8.952;2022-07-25T09:55:06;99871.66;;;31.29;75.27
4586;BME280;2305;50.118;8.952;2022-07-25T09:57:39;99855.84;;;31.26;73.97
4586;BME280;2305;50.118;8.952;2022-07-25T10:00:08;99866.72;;;31.36;84.69
4586;BME280;2305;50.118;8.952;2022-07-25T10:02:47;99862.38;;;31.35;86.98
4586;BME280;2305;50.118;8.952;2022-07-25T10:05:23;99858.56;;;31.26;80.59
4586;BME280;2305;50.118;8.952;2022-07-25T10:07:56;99860.75;;;31.49;75.97
4586;BME280;2305;50.118;8.952;2022-07-25T10:10:28;99849.06;;;31.79;72.90
4586;BME280;2305;50.118;8.952;2022-07-25T10:12:59;99833.19;;;32.11;71.54
4586;BME280;2305;50.118;8.952;2022-07-25T10:15:40;99835.03;;;32.40;70.60
4586;BME280;2305;50.118;8.952;2022-07-25T10:18:09;99842.63;;;32.58;65.07
4586;BME280;2305;50.118;8.952;2022-07-25T10:20:38;99839.91;;;32.58;65.42
4586;BME280;2305;50.118;8.952;2022-07-25T10:23:19;99825.16;;;32.59;65.83
4586;BME280;2305;50.118;8.952;2022-07-25T10:26:01;99836.03;;;32.74;65.41
4586;BME280;2305;50.118;8.952;2022-07-25T10:28:40;99831.56;;;32.93;65.44
4586;BME280;2305;50.118;8.952;2022-07-25T10:31:17;99839.69;;;33.03;63.61
4586;BME280;2305;50.118;8.952;2022-07-25T10:33:50;99825.75;;;33.05;60.81
4586;BME280;2305;50.118;8.952;2022-07-25T10:36:20;99819.03;;;32.87;73.40
4586;BME280;2305;50.118;8.952;2022-07-25T10:38:51;99827.28;;;32.67;63.81
4586;BME280;2305;50.118;8.952;2022-07-25T10:41:22;99822.34;;;32.69;62.62
4586;BME280;2305;50.118;8.952;2022-07-25T10:43:56;99817.72;;;32.75;63.10
4586;BME280;2305;50.118;8.952;2022-07-25T10:46:25;99817.66;;;32.85;59.83
4586;BME280;2305;50.118;8.952;2022-07-25T10:48:58;99813.59;;;32.77;62.55
4586;BME280;2305;50.118;8.952;2022-07-25T10:51:28;99814.44;;;32.78;61.36
4586;BME280;2305;50.118;8.952;2022-07-25T10:53:56;99807.59;;;32.80;58.62
4586;BME280;2305;50.118;8.952;2022-07-25T10:56:26;99822.78;;;32.96;55.32
4586;BME280;2305;50.118;8.952;2022-07-25T10:58:57;99816.22;;;32.97;57.67
4586;BME280;2305;50.118;8.952;2022-07-25T11:01:28;99808.53;;;33.04;56.69
4586;BME280;2305;50.118;8.952;2022-07-25T11:04:00;99799.72;;;33.12;54.60
4586;BME280;2305;50.118;8.952;2022-07-25T11:06:31;99803.56;;;33.11;59.56
4586;BME280;2305;50.118;8.952;2022-07-25T11:08:59;99798.06;;;33.16;55.38
4586;BME280;2305;50.118;8.952;2022-07-25T11:11:35;99789.59;;;33.18;51.51
4586;BME280;2305;50.118;8.952;2022-07-25T11:14:13;99789.50;;;33.33;51.97
4586;BME280;2305;50.118;8.952;2022-07-25T11:16:43;99795.63;;;33.48;51.18
4586;BME280;2305;50.118;8.952;2022-07-25T11:19:16;99788.75;;;33.56;51.41
4586;BME280;2305;50.118;8.952;2022-07-25T11:21:49;99776.34;;;33.63;49.40
4586;BME280;2305;50.118;8.952;2022-07-25T11:24:19;99780.16;;;33.67;49.63
4586;BME280;2305;50.118;8.952;2022-07-25T11:26:49;99777.34;;;33.77;49.96
4586;BME280;2305;50.118;8.952;2022-07-25T11:29:20;99775.28;;;33.93;50.63
4586;BME280;2305;50.118;8.952;2022-07-25T11:31:53;99772.97;;;34.05;49.58
4586;BME280;2305;50.118;8.952;2022-07-25T11:34:24;99779.69;;;34.12;49.15
4586;BME280;2305;50.118;8.952;2022-07-25T11:36:53;99766.69;;;34.28;50.44
4586;BME280;2305;50.118;8.952;2022-07-25T11:39:24;99765.38;;;34.62;49.04
4586;BME280;2305;50.118;8.952;2022-07-25T11:42:00;99760.84;;;34.76;48.28
4586;BME280;2305;50.118;8.952;2022-07-25T11:44:31;99758.84;;;34.82;48.07
4586;BME280;2305;50.118;8.952;2022-07-25T11:47:00;99754.63;;;34.89;48.02
4586;BME280;2305;50.118;8.952;2022-07-25T11:49:29;99749.00;;;34.99;47.56
4586;BME280;2305;50.118;8.952;2022-07-25T11:51:57;99757.66;;;35.06;46.33
4586;BME280;2305;50.118;8.952;2022-07-25T11:54:25;99762.75;;;35.13;43.88
4586;BME280;2305;50.118;8.952;2022-07-25T11:56:53;99778.88;;;35.14;44.32
4586;BME280;2305;50.118;8.952;2022-07-25T11:59:21;99767.19;;;35.09;42.80
4586;BME280;2305;50.118;8.952;2022-07-25T12:01:52;99760.53;;;34.96;43.45
4586;BME280;2305;50.118;8.952;2022-07-25T12:04:20;99767.81;;;34.87;44.38
4586;BME280;2305;50.118;8.952;2022-07-25T12:06:48;99779.19;;;34.94;43.82
4586;BME280;2305;50.118;8.952;2022-07-25T12:09:18;99780.31;;;34.93;44.31
4586;BME280;2305;50.118;8.952;2022-07-25T12:11:48;99784.97;;;34.93;44.77
4586;BME280;2305;50.118;8.952;2022-07-25T12:14:16;99776.53;;;34.89;43.60
4586;BME280;2305;50.118;8.952;2022-07-25T12:16:44;99791.06;;;34.90;44.55
4586;BME280;2305;50.118;8.952;2022-07-25T12:19:20;99785.34;;;34.86;45.59
4586;BME280;2305;50.118;8.952;2022-07-25T12:21:48;99772.41;;;34.73;45.98
4586;BME280;2305;50.118;8.952;2022-07-25T12:24:16;99785.22;;;34.54;47.02
4586;BME280;2305;50.118;8.952;2022-07-25T12:26:47;99775.44;;;34.48;47.79
4586;BME280;2305;50.118;8.952;2022-07-25T12:29:15;99787.44;;;34.52;48.18
4586;BME280;2305;50.118;8.952;2022-07-25T12:31:43;99770.13;;;34.57;47.81
4586;BME280;2305;50.118;8.952;2022-07-25T12:34:11;99772.78;;;34.43;47.61
4586;BME280;2305;50.118;8.952;2022-07-25T12:36:41;99764.03;;;34.41;49.08
4586;BME280;2305;50.118;8.952;2022-07-25T12:39:13;99767.22;;;34.67;48.33
4586;BME280;2305;50.118;8.952;2022-07-25T12:41:41;99756.56;;;34.89;47.08
4586;BME280;2305;50.118;8.952;2022-07-25T12:44:09;99747.47;;;35.25;47.38
4586;BME280;2305;50.118;8.952;2022-07-25T12:46:38;99739.59;;;35.69;46.93
4586;BME280;2305;50.118;8.952;2022-07-25T12:49:13;99741.25;;;36.11;45.45
4586;BME280;2305;50.118;8.952;2022-07-25T12:51:42;99740.13;;;36.39;44.16
4586;BME280;2305;50.118;8.952;2022-07-25T12:54:10;99732.22;;;36.24;43.80
4586;BME280;2305;50.118;8.952;2022-07-25T12:56:40;99742.66;;;36.22;43.72
4586;BME280;2305;50.118;8.952;2022-07-25T12:59:08;99737.72;;;36.24;43.27
4586;BME280;2305;50.118;8.952;2022-07-25T13:01:36;99733.31;;;36.09;43.43
4586;BME280;2305;50.118;8.952;2022-07-25T13:04:04;99714.72;;;35.93;44.70
4586;BME280;2305;50.118;8.952;2022-07-25T13:06:35;99719.50;;;35.87;44.46
4586;BME280;2305;50.118;8.952;2022-07-25T13:09:06;99709.03;;;35.76;42.62
4586;BME280;2305;50.118;8.952;2022-07-25T13:11:35;99717.91;;;35.54;40.79
4586;BME280;2305;50.118;8.952;2022-07-25T13:14:03;99711.56;;;35.40;41.02
4586;BME280;2305;50.118;8.952;2022-07-25T13:16:32;99724.66;;;35.11;40.10
4586;BME280;2305;50.118;8.952;2022-07-25T13:19:05;99726.00;;;34.82;40.75
4586;BME280;2305;50.118;8.952;2022-07-25T13:21:35;99729.78;;;34.62;41.79
4586;BME280;2305;50.118;8.952;2022-07-25T13:24:05;99705.38;;;34.47;42.43